sensor_id;sensor_type;location;lat;lon;timestamp;temperature;humidity
20438;DHT22;17436;50.338;8.810;2022-08-01T00:02:20;23.10;13.10
20438;DHT22;17436;50.338;8.810;2022-08-01T00:04:46;23.00;13.00
20438;DHT22;17436;50.338;8.810;2022-08-01T00:07:13;23.10;15.40
20438;DHT22;17436;50.338;8.810;2022-08-01T00:09:40;23.10;16.30
20438;DHT22;17436;50.338;8.810;2022-08-01T00:12:08;22.80;16.20
20438;DHT22;17436;50.338;8.810;2022-08-01T00:14:35;22.80;15.30
20438;DHT22;17436;50.338;8.810;2022-08-01T00:17:05;22.80;15.20
20438;DHT22;17436;50.338;8.810;2022-08-01T00:19:32;22.80;16.00
20438;DHT22;17436;50.338;8.810;2022-08-01T00:21:59;22.80;15.10
20438;DHT22;17436;50.338;8.810;2022-08-01T00:24:27;22.80;16.60
20438;DHT22;17436;50.338;8.810;2022-08-01T00:26:53;22.70;18.80
20438;DHT22;17436;50.338;8.810;2022-08-01T00:29:21;22.70;20.90
20438;DHT22;17436;50.338;8.810;2022-08-01T00:31:49;22.60;22.40
20438;DHT22;17436;50.338;8.810;2022-08-01T00:34:17;22.60;23.20
20438;DHT22;17436;50.338;8.810;2022-08-01T00:36:44;22.60;23.20
20438;DHT22;17436;50.338;8.810;2022-08-01T00:39:12;22.50;25.00
20438;DHT22;17436;50.338;8.810;2022-08-01T00:41:38;22.50;24.50
20438;DHT22;17436;50.338;8.810;2022-08-01T00:44:05;22.60;23.30
20438;DHT22;17436;50.338;8.810;2022-08-01T00:46:34;22.50;25.30
20438;DHT22;17436;50.338;8.810;2022-08-01T00:49:02;22.50;26.00
20438;DHT22;17436;50.338;8.810;2022-08-01T00:51:28;22.60;25.30
20438;DHT22;17436;50.338;8.810;2022-08-01T00:53:55;22.60;26.20
20438;DHT22;17436;50.338;8.810;2022-08-01T00:56:25;22.50;26.60
20438;DHT22;17436;50.338;8.810;2022-08-01T00:58:52;22.50;26.90
20438;DHT22;17436;50.338;8.810;2022-08-01T01:01:19;22.30;28.90
20438;DHT22;17436;50.338;8.810;2022-08-01T01:03:47;22.50;29.00
20438;DHT22;17436;50.338;8.810;2022-08-01T01:06:35;22.50;28.50
20438;DHT22;17436;50.338;8.810;2022-08-01T01:09:17;22.50;28.70
20438;DHT22;17436;50.338;8.810;2022-08-01T01:11:48;22.40;29.80
20438;DHT22;17436;50.338;8.810;2022-08-01T01:14:23;22.40;29.40
20438;DHT22;17436;50.338;8.810;2022-08-01T01:16:53;22.40;28.50
20438;DHT22;17436;50.338;8.810;2022-08-01T01:19:24;22.50;28.40
20438;DHT22;17436;50.338;8.810;2022-08-01T01:22:17;22.60;27.70
20438;DHT22;17436;50.338;8.810;2022-08-01T01:25:02;22.60;27.70
20438;DHT22;17436;50.338;8.810;2022-08-01T01:27:42;22.60;28.50
20438;DHT22;17436;50.338;8.810;2022-08-01T01:30:13;22.60;28.60
20438;DHT22;17436;50.338;8.810;2022-08-01T01:32:44;22.60;26.60
20438;DHT22;17436;50.338;8.810;2022-08-01T01:35:19;22.70;27.00
20438;DHT22;17436;50.338;8.810;2022-08-01T01:37:48;22.70;26.60
20438;DHT22;17436;50.338;8.810;2022-08-01T01:40:18;22.70;26.60
20438;DHT22;17436;50.338;8.810;2022-08-01T01:42:47;22.60;25.30
20438;DHT22;17436;50.338;8.810;2022-08-01T01:45:17;22.60;25.40
20438;DHT22;17436;50.338;8.810;2022-08-01T01:47:45;22.40;26.60
20438;DHT22;17436;50.338;8.810;2022-08-01T01:50:13;22.40;27.10
20438;DHT22;17436;50.338;8.810;2022-08-01T01:52:42;22.40;27.90
20438;DHT22;17436;50.338;8.810;2022-08-01T01:55:12;22.40;28.80
20438;DHT22;17436;50.338;8.810;2022-08-01T01:57:41;22.40;28.40
20438;DHT22;17436;50.338;8.810;2022-08-01T02:00:09;22.30;28.70
20438;DHT22;17436;50.338;8.810;2022-08-01T02:02:38;22.20;31.50
20438;DHT22;17436;50.338;8.810;2022-08-01T02:05:06;22.20;33.00
20438;DHT22;17436;50.338;8.810;2022-08-01T02:07:35;22.30;34.00
20438;DHT22;17436;50.338;8.810;2022-08-01T02:10:04;22.30;34.00
20438;DHT22;17436;50.338;8.810;2022-08-01T02:12:35;22.30;34.00
20438;DHT22;17436;50.338;8.810;2022-08-01T02:15:04;22.20;35.50
20438;DHT22;17436;50.338;8.810;2022-08-01T02:17:31;22.10;37.30
20438;DHT22;17436;50.338;8.810;2022-08-01T02:20:06;22.10;36.50
20438;DHT22;17436;50.338;8.810;2022-08-01T02:22:40;22.10;38.00
20438;DHT22;17436;50.338;8.810;2022-08-01T02:25:11;22.10;38.30
20438;DHT22;17436;50.338;8.810;2022-08-01T02:27:54;22.20;37.50
20438;DHT22;17436;50.338;8.810;2022-08-01T02:30:24;22.10;38.30
20438;DHT22;17436;50.338;8.810;2022-08-01T02:32:58;22.10;38.60
20438;DHT22;17436;50.338;8.810;2022-08-01T02:35:31;22.20;37.90
20438;DHT22;17436;50.338;8.810;2022-08-01T02:38:00;22.20;37.90
20438;DHT22;17436;50.338;8.810;2022-08-01T02:40:29;22.10;39.00
20438;DHT22;17436;50.338;8.810;2022-08-01T02:42:59;22.10;38.90
20438;DHT22;17436;50.338;8.810;2022-08-01T02:45:29;21.80;43.60
20438;DHT22;17436;50.338;8.810;2022-08-01T02:48:00;21.80;44.70
20438;DHT22;17436;50.338;8.810;2022-08-01T02:50:30;21.90;44.30
20438;DHT22;17436;50.338;8.810;2022-08-01T02:52:58;21.90;43.50
20438;DHT22;17436;50.338;8.810;2022-08-01T02:55:27;21.70;46.90
20438;DHT22;17436;50.338;8.810;2022-08-01T02:57:55;21.50;50.50
20438;DHT22;17436;50.338;8.810;2022-08-01T03:00:23;21.50;52.10
20438;DHT22;17436;50.338;8.810;2022-08-01T03:02:52;21.70;50.00
20438;DHT22;17436;50.338;8.810;2022-08-01T03:05:21;21.60;50.30
20438;DHT22;17436;50.338;8.810;2022-08-01T03:07:51;21.70;49.10
20438;DHT22;17436;50.338;8.810;2022-08-01T03:10:19;21.90;46.90
20438;DHT22;17436;50.338;8.810;2022-08-01T03:12:49;22.00;45.30
20438;DHT22;17436;50.338;8.810;2022-08-01T03:15:17;22.00;44.50
20438;DHT22;17436;50.338;8.810;2022-08-01T03:17:48;22.00;44.40
20438;DHT22;17436;50.338;8.810;2022-08-01T03:20:18;21.90;44.60
20438;DHT22;17436;50.338;8.810;2022-08-01T03:22:53;21.90;46.40
20438;DHT22;17436;50.338;8.810;2022-08-01T03:25:21;21.80;46.30
20438;DHT22;17436;50.338;8.810;2022-08-01T03:27:54;21.80;47.00
20438;DHT22;17436;50.338;8.810;2022-08-01T03:30:22;22.00;45.00
20438;DHT22;17436;50.338;8.810;2022-08-01T03:32:49;22.00;44.40
20438;DHT22;17436;50.338;8.810;2022-08-01T03:35:17;21.90;44.50
20438;DHT22;17436;50.338;8.810;2022-08-01T03:37:47;21.80;45.90
20438;DHT22;17436;50.338;8.810;2022-08-01T03:40:21;21.70;46.40
20438;DHT22;17436;50.338;8.810;2022-08-01T03:42:52;21.70;47.00
20438;DHT22;17436;50.338;8.810;2022-08-01T03:45:22;21.70;47.60
20438;DHT22;17436;50.338;8.810;2022-08-01T03:47:54;21.80;46.30
20438;DHT22;17436;50.338;8.810;2022-08-01T03:50:26;21.80;46.10
20438;DHT22;17436;50.338;8.810;2022-08-01T03:52:54;21.80;45.70
20438;DHT22;17436;50.338;8.810;2022-08-01T03:55:25;21.90;44.30
20438;DHT22;17436;50.338;8.810;2022-08-01T03:57:53;21.80;45.20
20438;DHT22;17436;50.338;8.810;2022-08-01T04:00:20;21.90;45.10
20438;DHT22;17436;50.338;8.810;2022-08-01T04:02:48;22.00;45.30
20438;DHT22;17436;50.338;8.810;2022-08-01T04:05:15;22.00;41.80
20438;DHT22;17436;50.338;8.810;2022-08-01T04:07:46;22.10;41.10
20438;DHT22;17436;50.338;8.810;2022-08-01T04:10:21;22.00;43.20
20438;DHT22;17436;50.338;8.810;2022-08-01T04:12:50;21.90;45.00
20438;DHT22;17436;50.338;8.810;2022-08-01T04:15:17;22.00;43.50
20438;DHT22;17436;50.338;8.810;2022-08-01T04:17:46;22.00;43.80
20438;DHT22;17436;50.338;8.810;2022-08-01T04:20:14;22.00;41.90
20438;DHT22;17436;50.338;8.810;2022-08-01T04:22:42;22.00;42.50
20438;DHT22;17436;50.338;8.810;2022-08-01T04:25:12;22.10;42.50
20438;DHT22;17436;50.338;8.810;2022-08-01T04:27:45;22.00;43.90
20438;DHT22;17436;50.338;8.810;2022-08-01T04:30:21;22.00;44.80
20438;DHT22;17436;50.338;8.810;2022-08-01T04:32:52;22.00;44.90
20438;DHT22;17436;50.338;8.810;2022-08-01T04:35:20;21.80;47.80
20438;DHT22;17436;50.338;8.810;2022-08-01T04:37:48;21.80;49.50
20438;DHT22;17436;50.338;8.810;2022-08-01T04:40:18;22.00;47.10
20438;DHT22;17436;50.338;8.810;2022-08-01T04:42:47;22.10;45.00
20438;DHT22;17436;50.338;8.810;2022-08-01T04:45:15;21.90;46.90
20438;DHT22;17436;50.338;8.810;2022-08-01T04:47:44;21.90;46.40
20438;DHT22;17436;50.338;8.810;2022-08-01T04:50:12;21.90;48.10
20438;DHT22;17436;50.338;8.810;2022-08-01T04:52:40;21.80;48.30
20438;DHT22;17436;50.338;8.810;2022-08-01T04:55:08;21.70;49.70
20438;DHT22;17436;50.338;8.810;2022-08-01T04:57:37;21.90;49.70
20438;DHT22;17436;50.338;8.810;2022-08-01T05:00:06;21.80;49.80
20438;DHT22;17436;50.338;8.810;2022-08-01T05:02:33;21.90;50.10
20438;DHT22;17436;50.338;8.810;2022-08-01T05:05:01;22.00;51.20
20438;DHT22;17436;50.338;8.810;2022-08-01T05:07:28;21.90;52.00
20438;DHT22;17436;50.338;8.810;2022-08-01T05:09:55;21.90;53.60
20438;DHT22;17436;50.338;8.810;2022-08-01T05:12:25;22.00;52.50
20438;DHT22;17436;50.338;8.810;2022-08-01T05:14:52;21.70;56.70
20438;DHT22;17436;50.338;8.810;2022-08-01T05:17:18;21.80;58.60
20438;DHT22;17436;50.338;8.810;2022-08-01T05:19:46;21.80;55.20
20438;DHT22;17436;50.338;8.810;2022-08-01T05:22:14;21.90;53.60
20438;DHT22;17436;50.338;8.810;2022-08-01T05:24:42;22.00;51.90
20438;DHT22;17436;50.338;8.810;2022-08-01T05:27:09;22.00;52.00
20438;DHT22;17436;50.338;8.810;2022-08-01T05:29:36;21.90;52.80
20438;DHT22;17436;50.338;8.810;2022-08-01T05:32:03;21.90;53.10
20438;DHT22;17436;50.338;8.810;2022-08-01T05:34:30;21.80;54.10
20438;DHT22;17436;50.338;8.810;2022-08-01T05:36:57;21.90;53.60
20438;DHT22;17436;50.338;8.810;2022-08-01T05:39:25;21.90;53.70
20438;DHT22;17436;50.338;8.810;2022-08-01T05:41:51;21.80;54.70
20438;DHT22;17436;50.338;8.810;2022-08-01T05:44:19;21.90;53.90
20438;DHT22;17436;50.338;8.810;2022-08-01T05:46:47;21.90;51.80
20438;DHT22;17436;50.338;8.810;2022-08-01T05:49:14;21.80;53.70
20438;DHT22;17436;50.338;8.810;2022-08-01T05:51:41;21.80;54.00
20438;DHT22;17436;50.338;8.810;2022-08-01T05:54:08;21.80;54.90
20438;DHT22;17436;50.338;8.810;2022-08-01T05:56:36;21.90;53.90
20438;DHT22;17436;50.338;8.810;2022-08-01T05:59:03;21.90;53.40
20438;DHT22;17436;50.338;8.810;2022-08-01T06:01:30;21.90;54.40
20438;DHT22;17436;50.338;8.810;2022-08-01T06:03:56;22.00;49.80
20438;DHT22;17436;50.338;8.810;2022-08-01T06:06:25;22.00;50.80
20438;DHT22;17436;50.338;8.810;2022-08-01T06:08:52;21.90;51.40
20438;DHT22;17436;50.338;8.810;2022-08-01T06:11:19;22.00;51.30
20438;DHT22;17436;50.338;8.810;2022-08-01T06:13:47;22.10;50.30
20438;DHT22;17436;50.338;8.810;2022-08-01T06:16:13;22.10;50.90
20438;DHT22;17436;50.338;8.810;2022-08-01T06:18:41;22.20;50.30
20438;DHT22;17436;50.338;8.810;2022-08-01T06:21:07;22.40;49.30
20438;DHT22;17436;50.338;8.810;2022-08-01T06:23:34;22.50;47.40
20438;DHT22;17436;50.338;8.810;2022-08-01T06:26:01;22.70;47.00
20438;DHT22;17436;50.338;8.810;2022-08-01T06:28:28;22.80;45.40
20438;DHT22;17436;50.338;8.810;2022-08-01T06:30:56;23.00;43.80
20438;DHT22;17436;50.338;8.810;2022-08-01T06:33:24;23.10;41.70
20438;DHT22;17436;50.338;8.810;2022-08-01T06:35:50;23.00;42.00
20438;DHT22;17436;50.338;8.810;2022-08-01T06:38:17;23.00;41.90
20438;DHT22;17436;50.338;8.810;2022-08-01T06:40:44;23.00;42.60
20438;DHT22;17436;50.338;8.810;2022-08-01T06:43:11;22.90;43.40
20438;DHT22;17436;50.338;8.810;2022-08-01T06:45:38;22.90;43.40
20438;DHT22;17436;50.338;8.810;2022-08-01T06:48:06;22.80;45.00
20438;DHT22;17436;50.338;8.810;2022-08-01T06:50:33;22.80;45.00
20438;DHT22;17436;50.338;8.810;2022-08-01T06:53:02;22.70;47.80
20438;DHT22;17436;50.338;8.810;2022-08-01T06:55:29;22.80;47.20
20438;DHT22;17436;50.338;8.810;2022-08-01T06:57:56;22.90;45.90
20438;DHT22;17436;50.338;8.810;2022-08-01T07:00:24;23.00;44.80
20438;DHT22;17436;50.338;8.810;2022-08-01T07:02:53;23.00;43.90
20438;DHT22;17436;50.338;8.810;2022-08-01T07:05:21;23.00;43.70
20438;DHT22;17436;50.338;8.810;2022-08-01T07:07:48;22.90;43.60
20438;DHT22;17436;50.338;8.810;2022-08-01T07:10:17;22.90;43.90
20438;DHT22;17436;50.338;8.810;2022-08-01T07:12:47;22.80;43.00
20438;DHT22;17436;50.338;8.810;2022-08-01T07:15:14;22.90;43.90
20438;DHT22;17436;50.338;8.810;2022-08-01T07:17:42;22.90;43.90
20438;DHT22;17436;50.338;8.810;2022-08-01T07:20:10;23.00;41.20
20438;DHT22;17436;50.338;8.810;2022-08-01T07:22:39;23.00;41.60
20438;DHT22;17436;50.338;8.810;2022-08-01T07:25:07;23.20;41.40
20438;DHT22;17436;50.338;8.810;2022-08-01T07:27:34;23.20;39.20
20438;DHT22;17436;50.338;8.810;2022-08-01T07:30:01;23.00;40.60
20438;DHT22;17436;50.338;8.810;2022-08-01T07:32:27;22.90;41.70
20438;DHT22;17436;50.338;8.810;2022-08-01T07:34:55;22.90;41.40
20438;DHT22;17436;50.338;8.810;2022-08-01T07:37:21;22.90;40.70
20438;DHT22;17436;50.338;8.810;2022-08-01T07:39:51;23.00;41.90
20438;DHT22;17436;50.338;8.810;2022-08-01T07:42:18;23.00;40.20
20438;DHT22;17436;50.338;8.810;2022-08-01T07:44:45;23.00;41.70
20438;DHT22;17436;50.338;8.810;2022-08-01T07:47:11;23.10;41.20
20438;DHT22;17436;50.338;8.810;2022-08-01T07:49:38;23.20;41.30
20438;DHT22;17436;50.338;8.810;2022-08-01T07:52:05;23.30;40.30
20438;DHT22;17436;50.338;8.810;2022-08-01T07:54:33;23.40;38.50
20438;DHT22;17436;50.338;8.810;2022-08-01T07:57:01;23.40;38.30
20438;DHT22;17436;50.338;8.810;2022-08-01T07:59:29;23.40;39.00
20438;DHT22;17436;50.338;8.810;2022-08-01T08:01:56;23.30;37.60
20438;DHT22;17436;50.338;8.810;2022-08-01T08:04:24;23.30;39.30
20438;DHT22;17436;50.338;8.810;2022-08-01T08:06:54;23.30;38.60
20438;DHT22;17436;50.338;8.810;2022-08-01T08:09:20;23.40;38.10
20438;DHT22;17436;50.338;8.810;2022-08-01T08:11:48;23.30;38.60
20438;DHT22;17436;50.338;8.810;2022-08-01T08:14:17;23.40;38.30
20438;DHT22;17436;50.338;8.810;2022-08-01T08:16:45;23.60;38.40
20438;DHT22;17436;50.338;8.810;2022-08-01T08:19:12;23.60;37.00
20438;DHT22;17436;50.338;8.810;2022-08-01T08:21:39;23.70;36.50
20438;DHT22;17436;50.338;8.810;2022-08-01T08:24:06;23.80;36.90
20438;DHT22;17436;50.338;8.810;2022-08-01T08:26:51;23.80;35.40
20438;DHT22;17436;50.338;8.810;2022-08-01T08:29:19;23.80;30.60
20438;DHT22;17436;50.338;8.810;2022-08-01T08:31:47;23.80;31.80
20438;DHT22;17436;50.338;8.810;2022-08-01T08:34:14;23.80;31.10
20438;DHT22;17436;50.338;8.810;2022-08-01T08:36:42;23.70;29.80
20438;DHT22;17436;50.338;8.810;2022-08-01T08:39:08;23.70;30.80
20438;DHT22;17436;50.338;8.810;2022-08-01T08:41:35;23.80;31.50
20438;DHT22;17436;50.338;8.810;2022-08-01T08:44:03;23.60;30.00
20438;DHT22;17436;50.338;8.810;2022-08-01T08:46:32;23.60;30.60
20438;DHT22;17436;50.338;8.810;2022-08-01T08:49:00;23.70;28.90
20438;DHT22;17436;50.338;8.810;2022-08-01T08:51:27;23.80;28.10
20438;DHT22;17436;50.338;8.810;2022-08-01T08:53:57;23.80;26.40
20438;DHT22;17436;50.338;8.810;2022-08-01T08:56:25;23.80;27.30
20438;DHT22;17436;50.338;8.810;2022-08-01T08:58:55;23.80;27.80
20438;DHT22;17436;50.338;8.810;2022-08-01T09:01:22;23.90;27.80
20438;DHT22;17436;50.338;8.810;2022-08-01T09:03:50;23.90;26.90
20438;DHT22;17436;50.338;8.810;2022-08-01T09:06:21;23.80;26.30
20438;DHT22;17436;50.338;8.810;2022-08-01T09:08:49;23.90;24.20
20438;DHT22;17436;50.338;8.810;2022-08-01T09:11:16;23.90;25.10
20438;DHT22;17436;50.338;8.810;2022-08-01T09:14:01;24.10;25.50
20438;DHT22;17436;50.338;8.810;2022-08-01T09:16:29;24.30;25.80
20438;DHT22;17436;50.338;8.810;2022-08-01T09:19:10;24.30;24.20
20438;DHT22;17436;50.338;8.810;2022-08-01T09:21:38;24.50;23.50
20438;DHT22;17436;50.338;8.810;2022-08-01T09:24:13;24.50;22.60
20438;DHT22;17436;50.338;8.810;2022-08-01T09:26:41;24.70;22.10
20438;DHT22;17436;50.338;8.810;2022-08-01T09:29:17;25.10;20.70
20438;DHT22;17436;50.338;8.810;2022-08-01T09:31:45;25.00;19.30
20438;DHT22;17436;50.338;8.810;2022-08-01T09:34:15;24.90;18.80
20438;DHT22;17436;50.338;8.810;2022-08-01T09:36:45;24.70;18.50
20438;DHT22;17436;50.338;8.810;2022-08-01T09:39:17;24.80;18.70
20438;DHT22;17436;50.338;8.810;2022-08-01T09:41:44;24.70;18.40
20438;DHT22;17436;50.338;8.810;2022-08-01T09:44:11;24.70;17.50
20438;DHT22;17436;50.338;8.810;2022-08-01T09:46:49;24.70;18.00
20438;DHT22;17436;50.338;8.810;2022-08-01T09:49:27;24.70;17.20
20438;DHT22;17436;50.338;8.810;2022-08-01T09:51:54;24.70;16.90
20438;DHT22;17436;50.338;8.810;2022-08-01T09:54:29;24.60;16.30
20438;DHT22;17436;50.338;8.810;2022-08-01T09:57:11;24.60;16.70
20438;DHT22;17436;50.338;8.810;2022-08-01T09:59:39;25.00;17.70
20438;DHT22;17436;50.338;8.810;2022-08-01T10:02:08;25.40;14.70
20438;DHT22;17436;50.338;8.810;2022-08-01T10:04:37;26.00;15.00
20438;DHT22;17436;50.338;8.810;2022-08-01T10:07:05;26.20;11.50
20438;DHT22;17436;50.338;8.810;2022-08-01T10:09:33;25.90;10.30
20438;DHT22;17436;50.338;8.810;2022-08-01T10:12:00;25.90;9.10
20438;DHT22;17436;50.338;8.810;2022-08-01T10:14:28;26.10;8.50
20438;DHT22;17436;50.338;8.810;2022-08-01T10:16:56;26.40;7.10
20438;DHT22;17436;50.338;8.810;2022-08-01T10:19:25;26.60;4.50
20438;DHT22;17436;50.338;8.810;2022-08-01T10:21:54;26.20;3.30
20438;DHT22;17436;50.338;8.810;2022-08-01T10:24:23;25.70;6.20
20438;DHT22;17436;50.338;8.810;2022-08-01T10:26:52;25.50;5.80
20438;DHT22;17436;50.338;8.810;2022-08-01T10:29:25;25.30;6.30
20438;DHT22;17436;50.338;8.810;2022-08-01T10:31:52;25.50;7.50
20438;DHT22;17436;50.338;8.810;2022-08-01T10:34:21;25.80;6.40
20438;DHT22;17436;50.338;8.810;2022-08-01T10:36:49;25.70;6.60
20438;DHT22;17436;50.338;8.810;2022-08-01T10:39:18;25.50;6.10
20438;DHT22;17436;50.338;8.810;2022-08-01T10:41:45;25.30;7.50
20438;DHT22;17436;50.338;8.810;2022-08-01T10:44:13;25.20;7.60
20438;DHT22;17436;50.338;8.810;2022-08-01T10:46:48;25.20;10.00
20438;DHT22;17436;50.338;8.810;2022-08-01T10:49:17;25.30;9.20
20438;DHT22;17436;50.338;8.810;2022-08-01T10:51:46;25.20;9.50
20438;DHT22;17436;50.338;8.810;2022-08-01T10:54:14;25.30;8.80
20438;DHT22;17436;50.338;8.810;2022-08-01T10:56:45;25.40;7.80
20438;DHT22;17436;50.338;8.810;2022-08-01T10:59:15;25.60;6.70
20438;DHT22;17436;50.338;8.810;2022-08-01T11:01:55;26.10;6.10
20438;DHT22;17436;50.338;8.810;2022-08-01T11:04:33;26.50;3.10
20438;DHT22;17436;50.338;8.810;2022-08-01T11:07:04;26.80;1.20
20438;DHT22;17436;50.338;8.810;2022-08-01T11:09:38;26.50;1.00
20438;DHT22;17436;50.338;8.810;2022-08-01T11:12:09;26.80;1.00
20438;DHT22;17436;50.338;8.810;2022-08-01T11:17:37;27.30;1.00
20438;DHT22;17436;50.338;8.810;2022-08-01T11:20:09;27.40;1.00
20438;DHT22;17436;50.338;8.810;2022-08-01T11:26:11;27.20;1.00
20438;DHT22;17436;50.338;8.810;2022-08-01T11:28:40;26.60;1.00
20438;DHT22;17436;50.338;8.810;2022-08-01T11:31:27;26.50;1.00
20438;DHT22;17436;50.338;8.810;2022-08-01T11:33:54;26.40;1.00
20438;DHT22;17436;50.338;8.810;2022-08-01T11:36:22;26.40;1.00
20438;DHT22;17436;50.338;8.810;2022-08-01T11:39:15;26.40;1.00
20438;DHT22;17436;50.338;8.810;2022-08-01T11:41:43;26.30;1.00
20438;DHT22;17436;50.338;8.810;2022-08-01T11:44:13;26.30;1.00
20438;DHT22;17436;50.338;8.810;2022-08-01T11:46:57;26.20;1.00
20438;DHT22;17436;50.338;8.810;2022-08-01T11:52:13;26.10;1.00
20438;DHT22;17436;50.338;8.810;2022-08-01T11:54:43;26.20;1.00
20438;DHT22;17436;50.338;8.810;2022-08-01T11:57:12;26.20;1.00
20438;DHT22;17436;50.338;8.810;2022-08-01T11:59:40;26.50;1.00
20438;DHT22;17436;50.338;8.810;2022-08-01T12:02:32;26.80;1.00
20438;DHT22;17436;50.338;8.810;2022-08-01T12:05:01;26.90;1.00
20438;DHT22;17436;50.338;8.810;2022-08-01T12:07:30;27.00;1.00
20438;DHT22;17436;50.338;8.810;2022-08-01T12:10:00;27.10;1.00
20438;DHT22;17436;50.338;8.810;2022-08-01T12:12:28;27.20;1.00
20438;DHT22;17436;50.338;8.810;2022-08-01T12:14:56;27.00;1.00
20438;DHT22;17436;50.338;8.810;2022-08-01T12:17:33;26.70;1.00
20438;DHT22;17436;50.338;8.810;2022-08-01T12:20:00;26.70;1.00
20438;DHT22;17436;50.338;8.810;2022-08-01T12:22:28;26.80;1.00
20438;DHT22;17436;50.338;8.810;2022-08-01T12:24:55;26.80;1.00
20438;DHT22;17436;50.338;8.810;2022-08-01T12:27:28;26.70;1.00
20438;DHT22;17436;50.338;8.810;2022-08-01T12:29:56;26.50;1.00
20438;DHT22;17436;50.338;8.810;2022-08-01T12:32:26;26.60;1.00
20438;DHT22;17436;50.338;8.810;2022-08-01T12:34:54;26.90;1.00
20438;DHT22;17436;50.338;8.810;2022-08-01T12:37:21;26.80;1.00
20438;DHT22;17436;50.338;8.810;2022-08-01T12:39:48;27.00;1.00
20438;DHT22;17436;50.338;8.810;2022-08-01T12:42:16;27.20;1.00
20438;DHT22;17436;50.338;8.810;2022-08-01T12:44:46;27.30;1.00
20438;DHT22;17436;50.338;8.810;2022-08-01T12:47:14;27.30;1.00
20438;DHT22;17436;50.338;8.810;2022-08-01T12:49:43;27.20;1.00
20438;DHT22;17436;50.338;8.810;2022-08-01T12:52:11;27.10;1.00
20438;DHT22;17436;50.338;8.810;2022-08-01T12:55:04;27.00;1.00
20438;DHT22;17436;50.338;8.810;2022-08-01T12:57:31;27.10;1.00
20438;DHT22;17436;50.338;8.810;2022-08-01T13:00:15;27.30;1.00
20438;DHT22;17436;50.338;8.810;2022-08-01T13:02:43;27.30;1.00
20438;DHT22;17436;50.338;8.810;2022-08-01T13:05:11;27.20;1.00
20438;DHT22;17436;50.338;8.810;2022-08-01T13:07:41;27.10;1.00
20438;DHT22;17436;50.338;8.810;2022-08-01T13:10:09;27.10;1.00
20438;DHT22;17436;50.338;8.810;2022-08-01T13:12:37;27.10;1.00
20438;DHT22;17436;50.338;8.810;2022-08-01T13:15:22;27.30;1.00
20438;DHT22;17436;50.338;8.810;2022-08-01T13:17:50;27.30;1.00
20438;DHT22;17436;50.338;8.810;2022-08-01T13:20:28;27.30;1.00
20438;DHT22;17436;50.338;8.810;2022-08-01T13:22:57;27.30;1.00
20438;DHT22;17436;50.338;8.810;2022-08-01T13:25:49;27.30;1.00
20438;DHT22;17436;50.338;8.810;2022-08-01T13:28:17;27.30;1.00
20438;DHT22;17436;50.338;8.810;2022-08-01T13:30:57;27.20;1.00
20438;DHT22;17436;50.338;8.810;2022-08-01T13:33:25;27.20;1.00
20438;DHT22;17436;50.338;8.810;2022-08-01T13:35:54;27.20;1.00
20438;DHT22;17436;50.338;8.810;2022-08-01T13:38:23;27.10;1.00
20438;DHT22;17436;50.338;8.810;2022-08-01T13:41:04;27.00;1.00
20438;DHT22;17436;50.338;8.810;2022-08-01T13:43:30;27.00;1.00
20438;DHT22;17436;50.338;8.810;2022-08-01T13:45:58;27.20;1.00
20438;DHT22;17436;50.338;8.810;2022-08-01T13:48:25;27.40;1.00
20438;DHT22;17436;50.338;8.810;2022-08-01T13:50:52;27.40;1.00
20438;DHT22;17436;50.338;8.810;2022-08-01T13:53:18;27.40;1.00
20438;DHT22;17436;50.338;8.810;2022-08-01T13:55:45;27.40;1.00
20438;DHT22;17436;50.338;8.810;2022-08-01T13:58:12;27.40;1.00
20438;DHT22;17436;50.338;8.810;2022-08-01T14:00:39;27.40;1.00
20438;DHT22;17436;50.338;8.810;2022-08-01T14:03:11;27.20;1.00
20438;DHT22;17436;50.338;8.810;2022-08-01T14:05:38;27.10;1.00
20438;DHT22;17436;50.338;8.810;2022-08-01T14:08:06;27.10;1.00
20438;DHT22;17436;50.338;8.810;2022-08-01T14:10:34;27.10;1.00
20438;DHT22;17436;50.338;8.810;2022-08-01T14:13:00;27.10;1.00
20438;DHT22;17436;50.338;8.810;2022-08-01T14:15:27;27.00;1.00
20438;DHT22;17436;50.338;8.810;2022-08-01T14:17:54;27.00;1.00
20438;DHT22;17436;50.338;8.810;2022-08-01T14:20:26;27.00;1.00
20438;DHT22;17436;50.338;8.810;2022-08-01T14:22:53;27.10;1.00
20438;DHT22;17436;50.338;8.810;2022-08-01T14:25:20;27.00;1.00
20438;DHT22;17436;50.338;8.810;2022-08-01T14:27:47;27.00;1.00
20438;DHT22;17436;50.338;8.810;2022-08-01T14:30:13;27.00;1.00
20438;DHT22;17436;50.338;8.810;2022-08-01T14:32:40;27.00;1.00
20438;DHT22;17436;50.338;8.810;2022-08-01T14:35:07;27.00;1.00
20438;DHT22;17436;50.338;8.810;2022-08-01T14:37:36;27.00;1.00
20438;DHT22;17436;50.338;8.810;2022-08-01T14:40:03;27.00;1.00
20438;DHT22;17436;50.338;8.810;2022-08-01T14:42:33;27.00;1.00
20438;DHT22;17436;50.338;8.810;2022-08-01T14:45:00;27.10;1.00
20438;DHT22;17436;50.338;8.810;2022-08-01T14:47:26;27.10;1.00
20438;DHT22;17436;50.338;8.810;2022-08-01T14:49:53;27.10;1.00
20438;DHT22;17436;50.338;8.810;2022-08-01T14:52:20;27.10;1.00
20438;DHT22;17436;50.338;8.810;2022-08-01T14:54:49;27.20;1.00
20438;DHT22;17436;50.338;8.810;2022-08-01T14:57:16;27.30;1.00
20438;DHT22;17436;50.338;8.810;2022-08-01T14:59:44;27.20;1.00
20438;DHT22;17436;50.338;8.810;2022-08-01T15:02:11;27.10;1.00
20438;DHT22;17436;50.338;8.810;2022-08-01T15:04:42;27.10;1.00
20438;DHT22;17436;50.338;8.810;2022-08-01T15:07:09;27.00;1.00
20438;DHT22;17436;50.338;8.810;2022-08-01T15:09:36;27.00;1.00
20438;DHT22;17436;50.338;8.810;2022-08-01T15:12:05;27.00;1.00
20438;DHT22;17436;50.338;8.810;2022-08-01T15:14:32;27.10;1.00
20438;DHT22;17436;50.338;8.810;2022-08-01T15:17:14;27.30;1.00
20438;DHT22;17436;50.338;8.810;2022-08-01T15:19:41;27.40;1.00
20438;DHT22;17436;50.338;8.810;2022-08-01T15:22:08;27.60;1.00
20438;DHT22;17436;50.338;8.810;2022-08-01T15:24:35;27.40;1.00
20438;DHT22;17436;50.338;8.810;2022-08-01T15:27:02;27.30;1.00
20438;DHT22;17436;50.338;8.810;2022-08-01T15:29:30;27.20;1.00
20438;DHT22;17436;50.338;8.810;2022-08-01T15:31:57;27.10;1.00
20438;DHT22;17436;50.338;8.810;2022-08-01T15:34:24;27.10;1.00
20438;DHT22;17436;50.338;8.810;2022-08-01T15:36:51;27.10;1.00
20438;DHT22;17436;50.338;8.810;2022-08-01T15:39:18;27.20;1.00
20438;DHT22;17436;50.338;8.810;2022-08-01T15:41:45;27.20;1.00
20438;DHT22;17436;50.338;8.810;2022-08-01T15:44:12;27.10;1.00
20438;DHT22;17436;50.338;8.810;2022-08-01T15:46:40;27.20;1.00
20438;DHT22;17436;50.338;8.810;2022-08-01T15:49:07;27.20;1.00
20438;DHT22;17436;50.338;8.810;2022-08-01T15:51:33;27.30;1.00
20438;DHT22;17436;50.338;8.810;2022-08-01T15:54:00;27.20;1.00
20438;DHT22;17436;50.338;8.810;2022-08-01T15:56:28;27.10;1.00
20438;DHT22;17436;50.338;8.810;2022-08-01T15:58:55;27.10;1.00
20438;DHT22;17436;50.338;8.810;2022-08-01T16:01:22;27.00;1.00